sensor_id;sensor_type;location;lat;lon;timestamp;temperature;humidity
24426;DHT22;12611;44.446;26.000;2022-08-27T00:02:14;25.80;59.60
24426;DHT22;12611;44.446;26.000;2022-08-27T00:04:43;25.80;59.70
24426;DHT22;12611;44.446;26.000;2022-08-27T00:07:13;25.80;59.70
24426;DHT22;12611;44.446;26.000;2022-08-27T00:09:41;25.80;59.70
24426;DHT22;12611;44.446;26.000;2022-08-27T00:12:10;25.80;59.80
24426;DHT22;12611;44.446;26.000;2022-08-27T00:14:39;25.80;59.80
24426;DHT22;12611;44.446;26.000;2022-08-27T00:17:09;25.80;59.80
24426;DHT22;12611;44.446;26.000;2022-08-27T00:19:38;25.80;59.80
24426;DHT22;12611;44.446;26.000;2022-08-27T00:22:08;25.70;59.90
24426;DHT22;12611;44.446;26.000;2022-08-27T00:24:36;25.70;59.90
24426;DHT22;12611;44.446;26.000;2022-08-27T00:27:15;25.70;59.90
24426;DHT22;12611;44.446;26.000;2022-08-27T00:29:44;25.70;59.90
24426;DHT22;12611;44.446;26.000;2022-08-27T00:32:15;25.70;60.00
24426;DHT22;12611;44.446;26.000;2022-08-27T00:34:43;25.70;60.20
24426;DHT22;12611;44.446;26.000;2022-08-27T00:37:12;25.60;61.10
24426;DHT22;12611;44.446;26.000;2022-08-27T00:39:41;25.60;60.90
24426;DHT22;12611;44.446;26.000;2022-08-27T00:42:10;25.60;60.50
24426;DHT22;12611;44.446;26.000;2022-08-27T00:44:38;25.60;60.70
24426;DHT22;12611;44.446;26.000;2022-08-27T00:47:10;25.60;60.90
24426;DHT22;12611;44.446;26.000;2022-08-27T00:49:44;25.60;61.20
24426;DHT22;12611;44.446;26.000;2022-08-27T00:52:20;25.50;61.30
24426;DHT22;12611;44.446;26.000;2022-08-27T00:55:04;25.50;61.60
24426;DHT22;12611;44.446;26.000;2022-08-27T00:57:35;25.50;61.80
24426;DHT22;12611;44.446;26.000;2022-08-27T01:00:10;25.40;61.90
24426;DHT22;12611;44.446;26.000;2022-08-27T01:02:39;25.40;62.10
24426;DHT22;12611;44.446;26.000;2022-08-27T01:05:14;25.40;62.10
24426;DHT22;12611;44.446;26.000;2022-08-27T01:07:47;25.40;62.30
24426;DHT22;12611;44.446;26.000;2022-08-27T01:10:19;25.30;62.30
24426;DHT22;12611;44.446;26.000;2022-08-27T01:12:49;25.30;62.50
24426;DHT22;12611;44.446;26.000;2022-08-27T01:15:21;25.30;62.60
24426;DHT22;12611;44.446;26.000;2022-08-27T01:17:51;25.30;62.80
24426;DHT22;12611;44.446;26.000;2022-08-27T01:20:24;25.30;62.90
24426;DHT22;12611;44.446;26.000;2022-08-27T01:23:01;25.20;63.00
24426;DHT22;12611;44.446;26.000;2022-08-27T01:25:31;25.20;63.20
24426;DHT22;12611;44.446;26.000;2022-08-27T01:28:02;25.20;63.30
24426;DHT22;12611;44.446;26.000;2022-08-27T01:30:30;25.20;63.40
24426;DHT22;12611;44.446;26.000;2022-08-27T01:32:59;25.20;63.70
24426;DHT22;12611;44.446;26.000;2022-08-27T01:35:28;25.20;63.60
24426;DHT22;12611;44.446;26.000;2022-08-27T01:37:59;25.20;63.60
24426;DHT22;12611;44.446;26.000;2022-08-27T01:40:27;25.10;63.60
24426;DHT22;12611;44.446;26.000;2022-08-27T01:42:58;25.10;63.70
24426;DHT22;12611;44.446;26.000;2022-08-27T01:45:30;25.10;63.90
24426;DHT22;12611;44.446;26.000;2022-08-27T01:48:00;25.10;63.90
24426;DHT22;12611;44.446;26.000;2022-08-27T01:50:32;25.10;63.90
24426;DHT22;12611;44.446;26.000;2022-08-27T01:53:03;25.00;64.10
24426;DHT22;12611;44.446;26.000;2022-08-27T01:55:33;25.00;64.40
24426;DHT22;12611;44.446;26.000;2022-08-27T01:58:03;25.00;64.40
24426;DHT22;12611;44.446;26.000;2022-08-27T02:00:33;25.00;64.60
24426;DHT22;12611;44.446;26.000;2022-08-27T02:03:03;25.00;64.70
24426;DHT22;12611;44.446;26.000;2022-08-27T02:05:31;24.90;64.80
24426;DHT22;12611;44.446;26.000;2022-08-27T02:08:11;24.90;64.80
24426;DHT22;12611;44.446;26.000;2022-08-27T02:10:43;24.90;65.00
24426;DHT22;12611;44.446;26.000;2022-08-27T02:13:14;24.80;65.10
24426;DHT22;12611;44.446;26.000;2022-08-27T02:15:43;24.80;65.40
24426;DHT22;12611;44.446;26.000;2022-08-27T02:18:12;24.80;65.50
24426;DHT22;12611;44.446;26.000;2022-08-27T02:20:43;24.80;66.90
24426;DHT22;12611;44.446;26.000;2022-08-27T02:23:12;24.80;66.60
24426;DHT22;12611;44.446;26.000;2022-08-27T02:25:41;24.80;66.60
24426;DHT22;12611;44.446;26.000;2022-08-27T02:28:10;24.70;66.50
24426;DHT22;12611;44.446;26.000;2022-08-27T02:30:40;24.70;66.60
24426;DHT22;12611;44.446;26.000;2022-08-27T02:33:09;24.60;66.60
24426;DHT22;12611;44.446;26.000;2022-08-27T02:35:38;24.60;66.70
24426;DHT22;12611;44.446;26.000;2022-08-27T02:38:09;24.60;66.90
24426;DHT22;12611;44.446;26.000;2022-08-27T02:40:39;24.60;67.00
24426;DHT22;12611;44.446;26.000;2022-08-27T02:43:07;24.50;67.00
24426;DHT22;12611;44.446;26.000;2022-08-27T02:45:43;24.50;67.30
24426;DHT22;12611;44.446;26.000;2022-08-27T02:48:12;24.50;67.30
24426;DHT22;12611;44.446;26.000;2022-08-27T02:50:40;24.50;67.30
24426;DHT22;12611;44.446;26.000;2022-08-27T02:53:09;24.50;67.40
24426;DHT22;12611;44.446;26.000;2022-08-27T02:55:38;24.50;67.60
24426;DHT22;12611;44.446;26.000;2022-08-27T02:58:06;24.40;67.60
24426;DHT22;12611;44.446;26.000;2022-08-27T03:00:35;24.50;67.70
24426;DHT22;12611;44.446;26.000;2022-08-27T03:03:05;24.40;67.70
24426;DHT22;12611;44.446;26.000;2022-08-27T03:05:36;24.40;67.80
24426;DHT22;12611;44.446;26.000;2022-08-27T03:08:05;24.40;67.90
24426;DHT22;12611;44.446;26.000;2022-08-27T03:10:34;24.30;68.00
24426;DHT22;12611;44.446;26.000;2022-08-27T03:13:03;24.30;68.00
24426;DHT22;12611;44.446;26.000;2022-08-27T03:15:31;24.30;68.10
24426;DHT22;12611;44.446;26.000;2022-08-27T03:18:00;24.30;68.30
24426;DHT22;12611;44.446;26.000;2022-08-27T03:20:51;24.30;68.50
24426;DHT22;12611;44.446;26.000;2022-08-27T03:23:22;24.20;68.60
24426;DHT22;12611;44.446;26.000;2022-08-27T03:25:52;24.20;68.60
24426;DHT22;12611;44.446;26.000;2022-08-27T03:28:23;24.20;68.90
24426;DHT22;12611;44.446;26.000;2022-08-27T03:30:54;24.20;69.20
24426;DHT22;12611;44.446;26.000;2022-08-27T03:33:24;24.20;69.20
24426;DHT22;12611;44.446;26.000;2022-08-27T03:35:54;24.20;69.30
24426;DHT22;12611;44.446;26.000;2022-08-27T03:38:23;24.20;69.40
24426;DHT22;12611;44.446;26.000;2022-08-27T03:40:53;24.10;69.40
24426;DHT22;12611;44.446;26.000;2022-08-27T03:43:22;24.10;69.50
24426;DHT22;12611;44.446;26.000;2022-08-27T03:45:51;24.10;69.70
24426;DHT22;12611;44.446;26.000;2022-08-27T03:48:28;24.10;69.70
24426;DHT22;12611;44.446;26.000;2022-08-27T03:51:03;24.10;69.90
24426;DHT22;12611;44.446;26.000;2022-08-27T03:53:33;24.10;70.10
24426;DHT22;12611;44.446;26.000;2022-08-27T03:56:03;24.00;70.10
24426;DHT22;12611;44.446;26.000;2022-08-27T03:58:32;24.00;70.20
24426;DHT22;12611;44.446;26.000;2022-08-27T04:01:00;24.10;70.20
24426;DHT22;12611;44.446;26.000;2022-08-27T04:03:29;24.00;70.20
24426;DHT22;12611;44.446;26.000;2022-08-27T04:05:59;24.00;70.30
24426;DHT22;12611;44.446;26.000;2022-08-27T04:08:29;24.00;70.40
24426;DHT22;12611;44.446;26.000;2022-08-27T04:10:57;24.00;70.40
24426;DHT22;12611;44.446;26.000;2022-08-27T04:13:26;24.10;70.40
24426;DHT22;12611;44.446;26.000;2022-08-27T04:15:54;24.00;70.30
24426;DHT22;12611;44.446;26.000;2022-08-27T04:18:23;24.10;71.10
24426;DHT22;12611;44.446;26.000;2022-08-27T04:20:51;24.10;70.30
24426;DHT22;12611;44.446;26.000;2022-08-27T04:23:21;24.10;70.20
24426;DHT22;12611;44.446;26.000;2022-08-27T04:25:50;24.10;70.30
24426;DHT22;12611;44.446;26.000;2022-08-27T04:28:18;24.10;70.30
24426;DHT22;12611;44.446;26.000;2022-08-27T04:30:47;24.10;71.10
24426;DHT22;12611;44.446;26.000;2022-08-27T04:33:15;24.20;70.30
24426;DHT22;12611;44.446;26.000;2022-08-27T04:35:44;24.20;70.30
24426;DHT22;12611;44.446;26.000;2022-08-27T04:38:12;24.20;70.30
24426;DHT22;12611;44.446;26.000;2022-08-27T04:40:42;24.20;70.20
24426;DHT22;12611;44.446;26.000;2022-08-27T04:43:28;24.20;70.20
24426;DHT22;12611;44.446;26.000;2022-08-27T04:45:57;24.20;70.10
24426;DHT22;12611;44.446;26.000;2022-08-27T04:48:25;24.20;70.10
24426;DHT22;12611;44.446;26.000;2022-08-27T04:50:54;24.20;70.10
24426;DHT22;12611;44.446;26.000;2022-08-27T04:53:23;24.30;70.10
24426;DHT22;12611;44.446;26.000;2022-08-27T04:55:55;24.30;70.10
24426;DHT22;12611;44.446;26.000;2022-08-27T04:58:25;24.30;71.00
24426;DHT22;12611;44.446;26.000;2022-08-27T05:00:55;24.30;70.10
24426;DHT22;12611;44.446;26.000;2022-08-27T05:03:27;24.40;70.10
24426;DHT22;12611;44.446;26.000;2022-08-27T05:06:00;24.40;70.00
24426;DHT22;12611;44.446;26.000;2022-08-27T05:08:29;24.40;69.90
24426;DHT22;12611;44.446;26.000;2022-08-27T05:10:59;24.50;69.90
24426;DHT22;12611;44.446;26.000;2022-08-27T05:13:28;24.50;69.70
24426;DHT22;12611;44.446;26.000;2022-08-27T05:15:58;24.60;69.60
24426;DHT22;12611;44.446;26.000;2022-08-27T05:18:27;24.60;69.50
24426;DHT22;12611;44.446;26.000;2022-08-27T05:20:59;24.60;69.50
24426;DHT22;12611;44.446;26.000;2022-08-27T05:23:28;24.60;69.40
24426;DHT22;12611;44.446;26.000;2022-08-27T05:25:58;24.70;69.50
24426;DHT22;12611;44.446;26.000;2022-08-27T05:28:28;24.70;69.30
24426;DHT22;12611;44.446;26.000;2022-08-27T05:31:03;24.80;69.30
24426;DHT22;12611;44.446;26.000;2022-08-27T05:33:33;24.80;69.20
24426;DHT22;12611;44.446;26.000;2022-08-27T05:36:02;24.80;69.00
24426;DHT22;12611;44.446;26.000;2022-08-27T05:38:32;24.90;69.10
24426;DHT22;12611;44.446;26.000;2022-08-27T05:41:04;24.90;69.10
24426;DHT22;12611;44.446;26.000;2022-08-27T05:43:33;24.90;68.90
24426;DHT22;12611;44.446;26.000;2022-08-27T05:46:04;25.00;68.80
24426;DHT22;12611;44.446;26.000;2022-08-27T05:48:33;25.00;68.60
24426;DHT22;12611;44.446;26.000;2022-08-27T05:51:08;25.10;68.50
24426;DHT22;12611;44.446;26.000;2022-08-27T05:53:37;25.10;68.50
24426;DHT22;12611;44.446;26.000;2022-08-27T05:56:13;25.10;68.60
24426;DHT22;12611;44.446;26.000;2022-08-27T05:58:42;25.20;68.60
24426;DHT22;12611;44.446;26.000;2022-08-27T06:01:30;25.20;68.50
24426;DHT22;12611;44.446;26.000;2022-08-27T06:03:59;25.30;68.40
24426;DHT22;12611;44.446;26.000;2022-08-27T06:06:28;25.30;68.20
24426;DHT22;12611;44.446;26.000;2022-08-27T06:08:57;25.40;68.20
24426;DHT22;12611;44.446;26.000;2022-08-27T06:11:26;25.40;68.10
24426;DHT22;12611;44.446;26.000;2022-08-27T06:13:55;25.50;68.20
24426;DHT22;12611;44.446;26.000;2022-08-27T06:16:24;25.60;68.10
24426;DHT22;12611;44.446;26.000;2022-08-27T06:18:54;25.70;68.10
24426;DHT22;12611;44.446;26.000;2022-08-27T06:21:23;25.70;68.10
24426;DHT22;12611;44.446;26.000;2022-08-27T06:23:52;25.80;68.10
24426;DHT22;12611;44.446;26.000;2022-08-27T06:26:24;25.80;68.00
24426;DHT22;12611;44.446;26.000;2022-08-27T06:28:54;25.90;68.00
24426;DHT22;12611;44.446;26.000;2022-08-27T06:31:24;26.00;68.00
24426;DHT22;12611;44.446;26.000;2022-08-27T06:33:57;26.10;67.90
24426;DHT22;12611;44.446;26.000;2022-08-27T06:36:29;26.20;67.90
24426;DHT22;12611;44.446;26.000;2022-08-27T06:38:58;26.30;67.80
24426;DHT22;12611;44.446;26.000;2022-08-27T06:41:28;26.30;67.40
24426;DHT22;12611;44.446;26.000;2022-08-27T06:43:58;26.40;67.30
24426;DHT22;12611;44.446;26.000;2022-08-27T06:46:27;26.50;67.20
24426;DHT22;12611;44.446;26.000;2022-08-27T06:48:58;26.60;67.00
24426;DHT22;12611;44.446;26.000;2022-08-27T06:51:28;26.70;66.60
24426;DHT22;12611;44.446;26.000;2022-08-27T06:53:58;26.80;66.30
24426;DHT22;12611;44.446;26.000;2022-08-27T06:56:28;26.90;66.10
24426;DHT22;12611;44.446;26.000;2022-08-27T06:58:59;27.00;66.00
24426;DHT22;12611;44.446;26.000;2022-08-27T07:01:30;27.00;65.60
24426;DHT22;12611;44.446;26.000;2022-08-27T07:04:01;27.10;65.40
24426;DHT22;12611;44.446;26.000;2022-08-27T07:06:31;27.20;65.30
24426;DHT22;12611;44.446;26.000;2022-08-27T07:09:00;27.30;65.20
24426;DHT22;12611;44.446;26.000;2022-08-27T07:11:29;27.30;64.80
24426;DHT22;12611;44.446;26.000;2022-08-27T07:14:00;27.40;64.70
24426;DHT22;12611;44.446;26.000;2022-08-27T07:16:29;27.50;64.20
24426;DHT22;12611;44.446;26.000;2022-08-27T07:19:00;27.60;64.00
24426;DHT22;12611;44.446;26.000;2022-08-27T07:21:30;27.60;63.60
24426;DHT22;12611;44.446;26.000;2022-08-27T07:24:01;27.70;63.40
24426;DHT22;12611;44.446;26.000;2022-08-27T07:26:33;27.80;63.20
24426;DHT22;12611;44.446;26.000;2022-08-27T07:29:04;27.90;63.10
24426;DHT22;12611;44.446;26.000;2022-08-27T07:31:33;27.90;62.80
24426;DHT22;12611;44.446;26.000;2022-08-27T07:34:02;28.10;63.00
24426;DHT22;12611;44.446;26.000;2022-08-27T07:36:31;28.10;62.90
24426;DHT22;12611;44.446;26.000;2022-08-27T07:39:00;28.20;62.90
24426;DHT22;12611;44.446;26.000;2022-08-27T07:41:29;28.30;63.00
24426;DHT22;12611;44.446;26.000;2022-08-27T07:44:01;28.30;62.90
24426;DHT22;12611;44.446;26.000;2022-08-27T07:46:54;28.40;62.80
24426;DHT22;12611;44.446;26.000;2022-08-27T07:49:24;28.50;62.70
24426;DHT22;12611;44.446;26.000;2022-08-27T07:51:52;28.60;63.10
24426;DHT22;12611;44.446;26.000;2022-08-27T07:54:21;28.60;62.00
24426;DHT22;12611;44.446;26.000;2022-08-27T07:56:51;28.70;62.10
24426;DHT22;12611;44.446;26.000;2022-08-27T07:59:21;28.80;61.90
24426;DHT22;12611;44.446;26.000;2022-08-27T08:01:51;28.90;61.30
24426;DHT22;12611;44.446;26.000;2022-08-27T08:04:21;28.90;60.30
24426;DHT22;12611;44.446;26.000;2022-08-27T08:06:52;29.00;59.50
24426;DHT22;12611;44.446;26.000;2022-08-27T08:09:22;29.10;59.40
24426;DHT22;12611;44.446;26.000;2022-08-27T08:11:51;29.10;58.70
24426;DHT22;12611;44.446;26.000;2022-08-27T08:14:20;29.20;58.70
24426;DHT22;12611;44.446;26.000;2022-08-27T08:16:49;29.20;58.70
24426;DHT22;12611;44.446;26.000;2022-08-27T08:19:18;29.30;57.80
24426;DHT22;12611;44.446;26.000;2022-08-27T08:21:48;29.30;57.50
24426;DHT22;12611;44.446;26.000;2022-08-27T08:24:27;29.50;57.60
24426;DHT22;12611;44.446;26.000;2022-08-27T08:26:55;29.50;57.40
24426;DHT22;12611;44.446;26.000;2022-08-27T08:29:32;29.60;57.30
24426;DHT22;12611;44.446;26.000;2022-08-27T08:32:01;29.60;56.90
24426;DHT22;12611;44.446;26.000;2022-08-27T08:34:33;29.70;57.10
24426;DHT22;12611;44.446;26.000;2022-08-27T08:37:04;29.70;57.00
24426;DHT22;12611;44.446;26.000;2022-08-27T08:39:33;29.80;56.70
24426;DHT22;12611;44.446;26.000;2022-08-27T08:42:05;29.80;56.70
24426;DHT22;12611;44.446;26.000;2022-08-27T08:44:36;29.90;56.60
24426;DHT22;12611;44.446;26.000;2022-08-27T08:47:11;29.90;56.40
24426;DHT22;12611;44.446;26.000;2022-08-27T08:49:47;30.00;55.70
24426;DHT22;12611;44.446;26.000;2022-08-27T08:52:25;30.00;55.90
24426;DHT22;12611;44.446;26.000;2022-08-27T08:55:06;30.10;56.00
24426;DHT22;12611;44.446;26.000;2022-08-27T08:57:42;30.20;56.10
24426;DHT22;12611;44.446;26.000;2022-08-27T09:00:13;30.20;56.10
24426;DHT22;12611;44.446;26.000;2022-08-27T09:02:48;30.30;56.20
24426;DHT22;12611;44.446;26.000;2022-08-27T09:05:18;30.30;55.80
24426;DHT22;12611;44.446;26.000;2022-08-27T09:08:01;30.40;55.60
24426;DHT22;12611;44.446;26.000;2022-08-27T09:10:57;30.40;55.50
24426;DHT22;12611;44.446;26.000;2022-08-27T09:13:30;30.40;55.40
24426;DHT22;12611;44.446;26.000;2022-08-27T09:16:02;30.50;55.20
24426;DHT22;12611;44.446;26.000;2022-08-27T09:18:34;30.60;55.20
24426;DHT22;12611;44.446;26.000;2022-08-27T09:21:09;30.60;55.30
24426;DHT22;12611;44.446;26.000;2022-08-27T09:23:54;30.70;54.80
24426;DHT22;12611;44.446;26.000;2022-08-27T09:26:27;30.80;54.20
24426;DHT22;12611;44.446;26.000;2022-08-27T09:28:57;30.80;54.20
24426;DHT22;12611;44.446;26.000;2022-08-27T09:31:52;30.80;53.90
24426;DHT22;12611;44.446;26.000;2022-08-27T09:34:21;30.80;52.80
24426;DHT22;12611;44.446;26.000;2022-08-27T09:36:57;30.90;52.30
24426;DHT22;12611;44.446;26.000;2022-08-27T09:39:34;30.90;52.80
24426;DHT22;12611;44.446;26.000;2022-08-27T09:42:22;31.10;52.00
24426;DHT22;12611;44.446;26.000;2022-08-27T09:44:54;31.10;51.70
24426;DHT22;12611;44.446;26.000;2022-08-27T09:47:23;31.10;52.00
24426;DHT22;12611;44.446;26.000;2022-08-27T09:50:06;31.20;52.20
24426;DHT22;12611;44.446;26.000;2022-08-27T09:52:44;31.20;52.10
24426;DHT22;12611;44.446;26.000;2022-08-27T09:55:28;31.30;51.70
24426;DHT22;12611;44.446;26.000;2022-08-27T09:57:58;31.30;49.60
24426;DHT22;12611;44.446;26.000;2022-08-27T10:00:33;31.40;49.90
24426;DHT22;12611;44.446;26.000;2022-08-27T10:03:04;31.50;50.20
24426;DHT22;12611;44.446;26.000;2022-08-27T10:05:38;31.50;50.20
24426;DHT22;12611;44.446;26.000;2022-08-27T10:08:17;31.50;49.20
24426;DHT22;12611;44.446;26.000;2022-08-27T10:10:54;31.60;49.50
24426;DHT22;12611;44.446;26.000;2022-08-27T10:13:27;31.70;49.80
24426;DHT22;12611;44.446;26.000;2022-08-27T10:16:28;31.70;49.60
24426;DHT22;12611;44.446;26.000;2022-08-27T10:19:14;31.80;49.50
24426;DHT22;12611;44.446;26.000;2022-08-27T10:21:47;31.80;50.00
24426;DHT22;12611;44.446;26.000;2022-08-27T10:24:27;31.80;49.70
24426;DHT22;12611;44.446;26.000;2022-08-27T10:27:07;32.00;49.70
24426;DHT22;12611;44.446;26.000;2022-08-27T10:29:41;32.00;49.50
24426;DHT22;12611;44.446;26.000;2022-08-27T10:32:27;32.10;49.80
24426;DHT22;12611;44.446;26.000;2022-08-27T10:35:06;32.10;49.80
24426;DHT22;12611;44.446;26.000;2022-08-27T10:37:44;32.20;49.50
24426;DHT22;12611;44.446;26.000;2022-08-27T10:40:23;32.20;49.40
24426;DHT22;12611;44.446;26.000;2022-08-27T10:43:05;32.30;49.40
24426;DHT22;12611;44.446;26.000;2022-08-27T10:45:45;32.40;49.50
24426;DHT22;12611;44.446;26.000;2022-08-27T10:48:21;32.40;49.50
24426;DHT22;12611;44.446;26.000;2022-08-27T10:50:55;32.40;49.00
24426;DHT22;12611;44.446;26.000;2022-08-27T10:53:35;32.50;48.50
24426;DHT22;12611;44.446;26.000;2022-08-27T10:56:12;32.40;48.30
24426;DHT22;12611;44.446;26.000;2022-08-27T10:59:02;32.40;48.40
24426;DHT22;12611;44.446;26.000;2022-08-27T11:01:39;32.40;48.80
24426;DHT22;12611;44.446;26.000;2022-08-27T11:04:15;32.40;48.10
24426;DHT22;12611;44.446;26.000;2022-08-27T11:06:50;32.30;48.00
24426;DHT22;12611;44.446;26.000;2022-08-27T11:09:22;32.20;47.40
24426;DHT22;12611;44.446;26.000;2022-08-27T11:11:57;32.20;47.70
24426;DHT22;12611;44.446;26.000;2022-08-27T11:14:48;32.20;47.60
24426;DHT22;12611;44.446;26.000;2022-08-27T11:17:24;32.30;47.90
24426;DHT22;12611;44.446;26.000;2022-08-27T11:20:03;32.30;47.70
24426;DHT22;12611;44.446;26.000;2022-08-27T11:22:38;32.40;47.90
24426;DHT22;12611;44.446;26.000;2022-08-27T11:25:16;32.50;48.00
24426;DHT22;12611;44.446;26.000;2022-08-27T11:27:47;32.50;47.80
24426;DHT22;12611;44.446;26.000;2022-08-27T11:30:22;32.50;47.50
24426;DHT22;12611;44.446;26.000;2022-08-27T11:32:58;32.60;47.40
24426;DHT22;12611;44.446;26.000;2022-08-27T11:35:34;32.60;47.30
24426;DHT22;12611;44.446;26.000;2022-08-27T11:38:22;32.60;47.30
24426;DHT22;12611;44.446;26.000;2022-08-27T11:41:03;32.70;47.60
24426;DHT22;12611;44.446;26.000;2022-08-27T11:43:36;32.70;47.50
24426;DHT22;12611;44.446;26.000;2022-08-27T11:46:07;32.70;47.50
24426;DHT22;12611;44.446;26.000;2022-08-27T11:48:39;32.70;47.00
24426;DHT22;12611;44.446;26.000;2022-08-27T11:51:11;32.80;47.20
24426;DHT22;12611;44.446;26.000;2022-08-27T11:53:55;32.80;47.10
24426;DHT22;12611;44.446;26.000;2022-08-27T11:56:36;32.90;47.30
24426;DHT22;12611;44.446;26.000;2022-08-27T11:59:17;32.90;46.80
24426;DHT22;12611;44.446;26.000;2022-08-27T12:01:48;33.00;46.90
24426;DHT22;12611;44.446;26.000;2022-08-27T12:04:22;33.10;47.00
24426;DHT22;12611;44.446;26.000;2022-08-27T12:06:59;33.10;46.90
24426;DHT22;12611;44.446;26.000;2022-08-27T12:09:28;33.20;46.90
24426;DHT22;12611;44.446;26.000;2022-08-27T12:12:15;33.20;47.10
24426;DHT22;12611;44.446;26.000;2022-08-27T12:14:51;33.20;46.80
24426;DHT22;12611;44.446;26.000;2022-08-27T12:17:28;33.30;46.70
24426;DHT22;12611;44.446;26.000;2022-08-27T12:20:13;33.30;46.40
24426;DHT22;12611;44.446;26.000;2022-08-27T12:22:55;33.40;46.40
24426;DHT22;12611;44.446;26.000;2022-08-27T12:25:41;33.40;46.40
24426;DHT22;12611;44.446;26.000;2022-08-27T12:28:21;33.40;46.30
24426;DHT22;12611;44.446;26.000;2022-08-27T12:30:53;33.40;45.80
24426;DHT22;12611;44.446;26.000;2022-08-27T12:33:28;33.50;46.00
24426;DHT22;12611;44.446;26.000;2022-08-27T12:36:04;33.50;45.60
24426;DHT22;12611;44.446;26.000;2022-08-27T12:38:43;33.60;45.40
24426;DHT22;12611;44.446;26.000;2022-08-27T12:41:28;33.50;44.80
24426;DHT22;12611;44.446;26.000;2022-08-27T12:44:02;33.50;45.20
24426;DHT22;12611;44.446;26.000;2022-08-27T12:46:31;33.50;45.00
24426;DHT22;12611;44.446;26.000;2022-08-27T12:49:03;33.50;45.10
24426;DHT22;12611;44.446;26.000;2022-08-27T12:51:52;33.60;45.30
24426;DHT22;12611;44.446;26.000;2022-08-27T12:54:31;33.60;45.40
24426;DHT22;12611;44.446;26.000;2022-08-27T12:57:08;33.60;45.40
24426;DHT22;12611;44.446;26.000;2022-08-27T12:59:54;33.60;44.90
24426;DHT22;12611;44.446;26.000;2022-08-27T13:02:44;33.60;44.90
24426;DHT22;12611;44.446;26.000;2022-08-27T13:05:20;33.70;44.80
24426;DHT22;12611;44.446;26.000;2022-08-27T13:07:50;33.70;44.60
24426;DHT22;12611;44.446;26.000;2022-08-27T13:10:23;33.70;44.40
24426;DHT22;12611;44.446;26.000;2022-08-27T13:13:02;33.70;44.30
24426;DHT22;12611;44.446;26.000;2022-08-27T13:15:31;33.70;44.60
24426;DHT22;12611;44.446;26.000;2022-08-27T13:18:03;33.70;44.80
24426;DHT22;12611;44.446;26.000;2022-08-27T13:20:36;33.80;44.90
24426;DHT22;12611;44.446;26.000;2022-08-27T13:23:07;33.80;44.80
24426;DHT22;12611;44.446;26.000;2022-08-27T13:25:55;33.80;44.70
24426;DHT22;12611;44.446;26.000;2022-08-27T13:28:33;33.70;44.80
24426;DHT22;12611;44.446;26.000;2022-08-27T13:31:23;33.70;44.70
24426;DHT22;12611;44.446;26.000;2022-08-27T13:34:05;33.60;44.30
24426;DHT22;12611;44.446;26.000;2022-08-27T13:44:06;33.70;44.80
24426;DHT22;12611;44.446;26.000;2022-08-27T14:05:02;33.90;44.90
24426;DHT22;12611;44.446;26.000;2022-08-27T14:07:34;34.70;43.40
24426;DHT22;12611;44.446;26.000;2022-08-27T14:10:22;34.70;43.80
24426;DHT22;12611;44.446;26.000;2022-08-27T14:12:56;34.60;43.80
24426;DHT22;12611;44.446;26.000;2022-08-27T14:15:46;34.50;43.50
24426;DHT22;12611;44.446;26.000;2022-08-27T14:21:41;34.70;43.60
24426;DHT22;12611;44.446;26.000;2022-08-27T14:24:33;34.50;43.80
24426;DHT22;12611;44.446;26.000;2022-08-27T14:27:52;34.50;44.00
24426;DHT22;12611;44.446;26.000;2022-08-27T14:30:47;34.30;44.00
24426;DHT22;12611;44.446;26.000;2022-08-27T14:33:24;34.30;44.30
24426;DHT22;12611;44.446;26.000;2022-08-27T14:36:00;34.30;44.50
24426;DHT22;12611;44.446;26.000;2022-08-27T14:38:38;34.30;44.50
24426;DHT22;12611;44.446;26.000;2022-08-27T14:41:16;34.30;44.70
24426;DHT22;12611;44.446;26.000;2022-08-27T14:43:47;34.20;44.50
24426;DHT22;12611;44.446;26.000;2022-08-27T14:46:22;34.10;44.40
24426;DHT22;12611;44.446;26.000;2022-08-27T14:48:53;34.00;44.30
24426;DHT22;12611;44.446;26.000;2022-08-27T14:51:24;33.90;44.40
24426;DHT22;12611;44.446;26.000;2022-08-27T14:53:55;33.80;44.60
24426;DHT22;12611;44.446;26.000;2022-08-27T14:56:25;33.70;44.30
24426;DHT22;12611;44.446;26.000;2022-08-27T14:58:54;33.60;44.40
24426;DHT22;12611;44.446;26.000;2022-08-27T15:01:23;33.50;44.30
24426;DHT22;12611;44.446;26.000;2022-08-27T15:03:53;33.40;44.40
24426;DHT22;12611;44.446;26.000;2022-08-27T15:06:22;33.30;44.60
24426;DHT22;12611;44.446;26.000;2022-08-27T15:08:54;33.20;44.70
24426;DHT22;12611;44.446;26.000;2022-08-27T15:11:24;33.20;44.90
24426;DHT22;12611;44.446;26.000;2022-08-27T15:13:55;33.10;45.10
24426;DHT22;12611;44.446;26.000;2022-08-27T15:16:29;33.10;45.30
24426;DHT22;12611;44.446;26.000;2022-08-27T15:18:59;33.00;45.30
24426;DHT22;12611;44.446;26.000;2022-08-27T15:21:28;32.90;45.40
24426;DHT22;12611;44.446;26.000;2022-08-27T15:24:02;32.90;45.50
24426;DHT22;12611;44.446;26.000;2022-08-27T15:26:31;32.90;45.80
24426;DHT22;12611;44.446;26.000;2022-08-27T15:29:00;32.80;45.90
24426;DHT22;12611;44.446;26.000;2022-08-27T15:31:33;32.70;46.10
24426;DHT22;12611;44.446;26.000;2022-08-27T15:34:02;32.70;46.30
24426;DHT22;12611;44.446;26.000;2022-08-27T15:36:30;32.70;46.30
24426;DHT22;12611;44.446;26.000;2022-08-27T15:39:00;32.60;46.10
24426;DHT22;12611;44.446;26.000;2022-08-27T15:41:29;32.60;46.20
24426;DHT22;12611;44.446;26.000;2022-08-27T15:44:00;32.60;46.10
24426;DHT22;12611;44.446;26.000;2022-08-27T15:46:29;32.50;46.10
24426;DHT22;12611;44.446;26.000;2022-08-27T15:48:57;32.50;46.20
24426;DHT22;12611;44.446;26.000;2022-08-27T15:51:29;32.50;46.30
24426;DHT22;12611;44.446;26.000;2022-08-27T15:54:00;32.60;46.40
24426;DHT22;12611;44.446;26.000;2022-08-27T15:56:29;32.50;46.40
24426;DHT22;12611;44.446;26.000;2022-08-27T15:59:00;32.50;46.60
24426;DHT22;12611;44.446;26.000;2022-08-27T16:01:31;32.50;46.90
24426;DHT22;12611;44.446;26.000;2022-08-27T16:04:00;32.50;47.10
24426;DHT22;12611;44.446;26.000;2022-08-27T16:06:29;32.50;47.50
24426;DHT22;12611;44.446;26.000;2022-08-27T16:08:58;32.40;47.50
24426;DHT22;12611;44.446;26.000;2022-08-27T16:11:28;32.30;47.60
24426;DHT22;12611;44.446;26.000;2022-08-27T16:13:56;32.30;47.70
24426;DHT22;12611;44.446;26.000;2022-08-27T16:16:29;32.30;47.80
24426;DHT22;12611;44.446;26.000;2022-08-27T16:19:00;32.20;47.90
24426;DHT22;12611;44.446;26.000;2022-08-27T16:21:29;32.20;48.00